createdAt,value
2018-12-13T00:04:47.354Z,95.21
2018-12-13T00:07:31.859Z,95.23
2018-12-13T00:10:03.345Z,95.70
2018-12-13T00:12:38.849Z,95.72
2018-12-13T00:15:11.389Z,95.67
2018-12-13T00:17:44.473Z,95.78
2018-12-13T00:23:14.771Z,96.37
2018-12-13T00:25:44.976Z,96.46
2018-12-13T00:28:14.677Z,96.42
2018-12-13T00:30:44.048Z,95.48
2018-12-13T00:33:15.711Z,95.17
2018-12-13T00:35:45.609Z,94.36
2018-12-13T00:38:15.717Z,94.28
2018-12-13T00:40:45.618Z,94.27
2018-12-13T00:43:21.211Z,94.02
2018-12-13T00:45:52.193Z,94.05
2018-12-13T00:48:24.476Z,94.44
2018-12-13T00:50:56.020Z,94.36
2018-12-13T00:53:27.513Z,94.30
2018-12-13T00:56:09.694Z,93.98
2018-12-13T00:58:51.149Z,94.05
2018-12-13T01:01:30.945Z,93.90
2018-12-13T01:04:25.242Z,94.68
2018-12-13T01:07:02.845Z,94.54
2018-12-13T01:09:44.361Z,94.96
2018-12-13T01:12:20.440Z,95.13
2018-12-13T01:14:51.429Z,95.66
2018-12-13T01:17:34.313Z,95.09
2018-12-13T01:20:16.229Z,95.43
2018-12-13T01:25:45.859Z,95.70
2018-12-13T01:28:16.092Z,95.33
2018-12-13T01:30:45.926Z,95.55
2018-12-13T01:33:16.255Z,95.45
2018-12-13T01:35:55.773Z,96.06
2018-12-13T01:38:37.717Z,96.00
2018-12-13T01:41:07.456Z,95.89
2018-12-13T01:43:43.929Z,95.98
2018-12-13T01:46:14.031Z,95.99
2018-12-13T01:48:45.441Z,95.83
2018-12-13T01:54:12.456Z,96.36
2018-12-13T01:57:00.383Z,96.59
2018-12-13T01:59:52.206Z,96.35
2018-12-13T02:02:48.177Z,96.19
2018-12-13T02:08:13.050Z,96.51
2018-12-13T02:10:54.592Z,96.60
2018-12-13T02:13:52.725Z,97.03
2018-12-13T02:19:22.911Z,97.12
2018-12-13T02:21:53.839Z,97.07
2018-12-13T02:24:23.614Z,96.81
2018-12-13T02:27:00.661Z,96.89
2018-12-13T02:29:50.177Z,96.27
2018-12-13T02:32:31.119Z,96.50
2018-12-13T02:35:14.578Z,95.49
2018-12-13T02:37:56.569Z,95.47
2018-12-13T02:40:35.346Z,95.54
2018-12-13T02:43:06.850Z,95.95
2018-12-13T02:45:50.533Z,96.16
2018-12-13T02:48:29.774Z,95.69
2018-12-13T02:50:59.817Z,96.04
2018-12-13T02:53:30.245Z,96.41
2018-12-13T02:59:00.137Z,96.57
2018-12-13T03:01:54.245Z,96.55
2018-12-13T03:04:48.890Z,96.73
2018-12-13T03:07:18.501Z,96.78
2018-12-13T03:09:50.762Z,96.86
2018-12-13T03:12:20.188Z,96.57
2018-12-13T03:14:52.837Z,96.37
2018-12-13T03:17:23.930Z,95.88
2018-12-13T03:19:54.405Z,96.00
2018-12-13T03:25:19.002Z,96.47
2018-12-13T03:27:49.788Z,96.18
2018-12-13T03:30:19.504Z,96.32
2018-12-13T03:32:48.943Z,96.10
2018-12-13T03:35:18.536Z,95.95
2018-12-13T03:37:48.286Z,95.54
2018-12-13T03:40:20.961Z,95.38
2018-12-13T03:42:50.859Z,95.21
2018-12-13T03:45:22.557Z,95.04
2018-12-13T03:47:52.600Z,95.38
2018-12-13T03:50:22.409Z,95.72
2018-12-13T03:53:00.148Z,95.96
2018-12-13T03:55:31.752Z,96.35
2018-12-13T03:58:03.398Z,96.23
2018-12-13T04:00:35.604Z,96.38
2018-12-13T04:03:06.268Z,95.62
2018-12-13T04:05:42.667Z,95.69
2018-12-13T04:08:13.760Z,96.31
2018-12-13T04:13:43.827Z,96.76
2018-12-13T04:19:14.839Z,96.65
2018-12-13T04:21:47.871Z,96.79
2018-12-13T04:33:24.952Z,96.49
2018-12-13T04:39:00.629Z,95.68
2018-12-13T04:41:30.372Z,95.98
2018-12-13T04:44:00.187Z,96.25
2018-12-13T04:46:30.014Z,96.42
2018-12-13T04:48:59.768Z,96.12
2018-12-13T04:51:29.150Z,96.66
2018-12-13T04:53:58.872Z,96.05
2018-12-13T04:56:32.252Z,95.62
2018-12-13T04:59:02.039Z,94.89
2018-12-13T05:01:56.139Z,94.85
2018-12-13T05:04:25.948Z,94.32
2018-12-13T05:06:56.367Z,94.05
2018-12-13T05:09:26.787Z,94.13
2018-12-13T05:11:56.779Z,95.04
2018-12-13T05:17:37.711Z,96.89
2018-12-13T05:20:08.167Z,96.00
2018-12-13T05:22:38.109Z,95.54
2018-12-13T05:25:09.533Z,96.19
2018-12-13T05:27:39.539Z,96.63
2018-12-13T05:30:09.261Z,96.65
2018-12-13T05:32:39.277Z,96.53
2018-12-13T05:35:09.495Z,96.25
2018-12-13T05:37:39.451Z,97.16
2018-12-13T05:40:09.087Z,96.98
2018-12-13T05:42:38.627Z,96.93
2018-12-13T05:45:08.185Z,97.00
2018-12-13T05:47:37.971Z,96.57
2018-12-13T05:50:07.895Z,96.08
2018-12-13T05:52:37.700Z,96.11
2018-12-13T05:55:08.566Z,95.54
2018-12-13T05:57:38.471Z,95.54
2018-12-13T06:00:10.451Z,95.80
2018-12-13T06:05:52.131Z,94.44
2018-12-13T06:08:27.969Z,93.93
2018-12-13T06:11:07.640Z,92.94
2018-12-13T06:13:37.419Z,93.10
2018-12-13T06:16:07.164Z,93.52
2018-12-13T06:18:36.972Z,93.58
2018-12-13T06:21:11.877Z,93.70
2018-12-13T06:23:59.095Z,93.48
2018-12-13T06:26:28.528Z,94.74
2018-12-13T06:28:57.922Z,95.04
2018-12-13T06:31:27.361Z,94.78
2018-12-13T06:33:56.810Z,94.13
2018-12-13T06:36:26.695Z,93.77
2018-12-13T06:38:56.009Z,93.69
2018-12-13T06:41:25.691Z,93.23
2018-12-13T06:43:55.383Z,94.78
2018-12-13T06:46:25.131Z,94.63
2018-12-13T06:48:55.023Z,94.64
2018-12-13T06:51:39.255Z,95.01
2018-12-13T06:54:09.035Z,95.07
2018-12-13T06:56:38.819Z,94.46
2018-12-13T06:59:08.555Z,94.30
2018-12-13T07:04:38.486Z,94.60
2018-12-13T07:07:08.228Z,94.88
2018-12-13T07:09:37.971Z,94.93
2018-12-13T07:12:07.687Z,95.67
2018-12-13T07:14:37.392Z,95.04
2018-12-13T07:17:10.810Z,95.44
2018-12-13T07:19:43.753Z,95.41
2018-12-13T07:22:25.563Z,95.95
2018-12-13T07:25:01.204Z,97.24
2018-12-13T07:30:38.125Z,98.41
2018-12-13T07:33:10.199Z,98.76
2018-12-13T07:35:46.334Z,97.64
2018-12-13T07:38:30.823Z,97.57
2018-12-13T07:41:24.728Z,97.76
2018-12-13T07:44:01.819Z,98.40
2018-12-13T07:46:34.755Z,98.09
2018-12-13T07:49:07.786Z,98.58
2018-12-13T07:51:40.589Z,98.64
2018-12-13T07:54:14.376Z,98.30
2018-12-13T07:56:51.700Z,98.44
2018-12-13T07:59:22.492Z,97.83
2018-12-13T08:01:58.887Z,97.58
2018-12-13T08:04:46.157Z,97.34
2018-12-13T08:07:15.915Z,97.74
2018-12-13T08:09:45.611Z,98.16
2018-12-13T08:12:15.372Z,97.54
2018-12-13T08:14:45.090Z,97.71
2018-12-13T08:17:14.761Z,97.72
2018-12-13T08:19:44.456Z,97.13
2018-12-13T08:22:14.133Z,97.61
2018-12-13T08:24:43.837Z,97.32
2018-12-13T08:27:13.541Z,97.84
2018-12-13T08:29:43.261Z,97.16
2018-12-13T08:32:12.625Z,97.19
2018-12-13T08:34:59.737Z,97.52
2018-12-13T08:37:35.242Z,97.09
2018-12-13T08:40:06.352Z,97.17
2018-12-13T08:42:38.929Z,97.24
2018-12-13T08:45:24.401Z,96.96
2018-12-13T08:48:06.881Z,97.05
2018-12-13T08:50:50.963Z,97.48
2018-12-13T08:53:36.837Z,97.82
2018-12-13T08:56:06.581Z,97.30
2018-12-13T08:58:36.765Z,96.78
2018-12-13T09:01:09.623Z,97.67
2018-12-13T09:03:44.837Z,98.25
2018-12-13T09:06:20.653Z,98.49
2018-12-13T09:09:02.766Z,97.59
2018-12-13T09:11:44.276Z,97.34
2018-12-13T09:14:32.469Z,96.57
2018-12-13T09:17:06.251Z,96.58
2018-12-13T09:22:58.259Z,96.57
2018-12-13T09:25:35.436Z,97.69
2018-12-13T09:34:32.131Z,97.91
2018-12-13T09:46:26.043Z,97.17
2018-12-13T09:49:01.155Z,95.25
2018-12-13T09:51:36.587Z,95.64
2018-12-13T09:54:18.406Z,94.22
2018-12-13T09:57:00.763Z,94.40
2018-12-13T09:59:50.159Z,94.51
2018-12-13T10:05:44.142Z,94.01
2018-12-13T10:11:19.410Z,94.10
2018-12-13T10:54:04.565Z,91.34
2018-12-13T10:56:49.813Z,92.09
2018-12-13T10:59:19.553Z,91.02
2018-12-13T11:04:49.821Z,90.53
2018-12-13T11:07:37.745Z,90.37
2018-12-13T11:13:03.696Z,91.79
2018-12-13T11:15:45.217Z,91.88
2018-12-13T11:18:14.997Z,91.77
2018-12-13T11:23:41.732Z,90.76
2018-12-13T11:26:11.148Z,89.91
2018-12-13T11:31:41.012Z,88.47
2018-12-13T11:34:10.442Z,89.03
2018-12-13T11:36:45.716Z,89.36
2018-12-13T11:39:21.221Z,88.58
2018-12-13T11:44:57.221Z,88.26
2018-12-13T11:50:20.228Z,89.49
2018-12-13T11:52:49.931Z,88.74
2018-12-13T11:55:29.467Z,89.01
2018-12-13T11:57:59.068Z,89.44
2018-12-13T12:00:38.640Z,90.29
2018-12-13T12:03:08.052Z,89.84
2018-12-13T12:08:44.017Z,89.66
2018-12-13T12:11:13.717Z,88.33
2018-12-13T12:13:43.116Z,88.49
2018-12-13T12:16:13.527Z,89.32
2018-12-13T12:18:43.306Z,88.92
2018-12-13T12:21:13.005Z,87.21
2018-12-13T12:23:42.441Z,86.82
2018-12-13T12:26:11.820Z,88.53
2018-12-13T12:28:41.224Z,89.44
2018-12-13T12:31:10.943Z,89.28
2018-12-13T12:33:40.613Z,89.66
2018-12-13T12:36:10.060Z,90.15
2018-12-13T12:39:08.437Z,89.34
2018-12-13T12:41:38.424Z,89.94
2018-12-13T12:44:08.614Z,89.88
2018-12-13T12:46:38.916Z,89.86
2018-12-13T12:49:09.625Z,88.28
2018-12-13T12:51:46.084Z,88.65
2018-12-13T12:54:15.800Z,89.17
2018-12-13T12:56:45.486Z,88.81
2018-12-13T12:59:14.884Z,88.60
2018-12-13T13:01:44.632Z,88.40
2018-12-13T13:04:14.372Z,88.11
2018-12-13T13:09:44.326Z,87.26
2018-12-13T13:12:14.059Z,85.97
2018-12-13T13:14:43.964Z,85.82
2018-12-13T13:17:13.685Z,85.63
2018-12-13T13:19:43.418Z,85.64
2018-12-13T13:28:34.653Z,87.46
2018-12-13T13:31:13.920Z,87.63
2018-12-13T13:33:48.800Z,88.06
2018-12-13T13:36:26.245Z,87.09
2018-12-13T13:38:59.130Z,87.87
2018-12-13T13:41:32.181Z,87.37
2018-12-13T13:44:05.088Z,87.70
2018-12-13T13:46:41.905Z,88.41
2018-12-13T13:49:14.588Z,88.04
2018-12-13T13:51:49.869Z,88.20
2018-12-13T13:57:18.729Z,89.25
2018-12-13T13:59:54.812Z,88.39
2018-12-13T14:02:24.768Z,86.82
2018-12-13T14:04:54.201Z,85.73
2018-12-13T14:07:24.056Z,85.32
2018-12-13T14:09:53.865Z,84.86
2018-12-13T14:12:23.476Z,86.12
2018-12-13T14:14:53.440Z,85.58
2018-12-13T14:17:23.477Z,85.51
2018-12-13T14:19:52.918Z,86.31
2018-12-13T14:22:22.916Z,85.54
2018-12-13T14:24:52.729Z,85.72
2018-12-13T14:27:22.697Z,86.28
2018-12-13T14:29:52.557Z,85.99
2018-12-13T14:32:22.374Z,85.34
2018-12-13T14:34:57.478Z,85.05
2018-12-13T14:37:24.561Z,84.60
2018-12-13T14:39:54.425Z,85.79
2018-12-13T14:42:24.261Z,86.41
2018-12-13T14:44:54.102Z,86.19
2018-12-13T14:47:23.890Z,85.21
2018-12-13T14:49:54.821Z,85.33
2018-12-13T14:53:09.697Z,86.01
2018-12-13T14:55:50.957Z,86.88
2018-12-13T14:58:38.650Z,87.68
2018-12-13T15:04:10.228Z,88.22
2018-12-13T15:16:13.136Z,89.34
2018-12-13T15:37:20.024Z,89.42
2018-12-13T15:39:57.367Z,89.39
2018-12-13T15:48:42.028Z,88.87
2018-12-13T15:54:18.216Z,88.67
2018-12-13T15:56:55.418Z,88.74
2018-12-13T16:05:41.160Z,88.68
2018-12-13T18:01:50.615Z,84.08
2018-12-13T18:16:43.511Z,82.83
2018-12-13T18:19:20.544Z,82.22
2018-12-13T18:21:57.667Z,82.15
2018-12-13T18:24:31.506Z,82.24
2018-12-13T18:30:15.960Z,81.97
2018-12-13T18:33:01.692Z,81.80
2018-12-13T18:38:42.564Z,84.84
2018-12-13T18:41:20.196Z,82.49
2018-12-13T18:44:08.470Z,77.72
2018-12-13T18:49:49.710Z,78.58
2018-12-13T18:52:26.720Z,80.07
2018-12-13T18:58:06.042Z,79.47
2018-12-13T19:00:53.948Z,80.60
2018-12-13T19:03:40.079Z,80.82
2018-12-13T19:06:14.207Z,81.18
2018-12-13T19:08:53.211Z,81.25
2018-12-13T19:11:27.915Z,81.80
2018-12-13T19:17:14.341Z,82.26
2018-12-13T19:19:44.678Z,82.78
2018-12-13T19:22:28.938Z,82.49
2018-12-13T19:28:04.442Z,82.68
2018-12-13T19:30:39.943Z,83.04
2018-12-13T19:36:21.768Z,83.02
2018-12-13T19:38:57.551Z,83.30
2018-12-13T19:44:34.678Z,83.54
2018-12-13T19:47:04.460Z,84.10
2018-12-13T19:49:34.879Z,83.76
2018-12-13T19:52:17.882Z,83.52
2018-12-13T19:54:53.338Z,83.18
2018-12-13T20:00:31.650Z,83.26
2018-12-13T20:03:03.166Z,83.56
2018-12-13T20:05:32.967Z,83.26
2018-12-13T20:08:04.020Z,82.94
2018-12-13T20:10:39.934Z,83.52
2018-12-13T20:13:16.096Z,83.17
2018-12-13T20:15:46.300Z,83.17
2018-12-13T20:21:21.944Z,82.84
2018-12-13T20:23:59.372Z,83.41
2018-12-13T20:26:53.655Z,83.47
2018-12-13T20:35:31.901Z,83.38
2018-12-13T20:41:01.393Z,83.73
2018-12-13T20:43:34.574Z,83.30
2018-12-13T20:46:10.289Z,83.63
2018-12-13T20:48:43.997Z,83.67
2018-12-13T20:51:19.221Z,83.23
2018-12-13T20:53:56.591Z,83.33
2018-12-13T20:56:30.301Z,82.77
2018-12-13T20:59:00.981Z,82.84
2018-12-13T21:01:30.905Z,83.01
2018-12-13T21:04:01.049Z,83.08
2018-12-13T21:06:30.468Z,82.90
2018-12-13T21:09:07.197Z,82.93
2018-12-13T21:11:38.601Z,82.93
2018-12-13T21:14:11.629Z,82.76
2018-12-13T21:16:45.524Z,83.10
2018-12-13T21:19:18.970Z,82.94
2018-12-13T21:21:55.525Z,82.67
2018-12-13T21:24:39.314Z,83.12
2018-12-13T21:27:12.934Z,82.95
2018-12-13T21:29:48.180Z,83.04
2018-12-13T21:32:26.688Z,83.24
2018-12-13T21:37:56.282Z,82.66
2018-12-13T21:40:25.977Z,82.75
2018-12-13T21:42:55.708Z,83.01
2018-12-13T21:45:25.430Z,82.82
2018-12-13T21:47:55.121Z,82.72
2018-12-13T21:50:25.239Z,82.19
2018-12-13T21:52:55.180Z,82.20
2018-12-13T21:55:24.886Z,82.21
2018-12-13T21:57:54.284Z,82.78
2018-12-13T22:00:23.696Z,82.90
2018-12-13T22:02:53.445Z,83.23
2018-12-13T22:05:22.824Z,83.01
2018-12-13T22:07:52.604Z,82.55
2018-12-13T22:10:22.060Z,82.80
2018-12-13T22:12:51.880Z,83.17
2018-12-13T22:15:21.668Z,82.54
2018-12-13T22:17:51.122Z,82.51
2018-12-13T22:20:20.845Z,83.03
2018-12-13T22:22:50.264Z,83.14
2018-12-13T22:25:20.063Z,83.04
2018-12-13T22:27:49.557Z,83.00
2018-12-13T22:30:19.300Z,83.29
2018-12-13T22:32:49.042Z,83.48
2018-12-13T22:35:18.741Z,83.28
2018-12-13T22:37:48.212Z,83.88
2018-12-13T22:40:17.963Z,83.81
2018-12-13T22:42:47.852Z,84.13
2018-12-13T22:45:17.592Z,83.80
2018-12-13T22:47:47.306Z,84.36
2018-12-13T22:50:17.064Z,84.07
2018-12-13T22:52:46.940Z,83.88
2018-12-13T22:55:29.300Z,84.38
2018-12-13T22:57:59.786Z,83.98
2018-12-13T23:00:45.323Z,84.51
2018-12-13T23:03:30.840Z,83.83
2018-12-13T23:06:12.321Z,84.15
2018-12-13T23:08:45.325Z,83.96
2018-12-13T23:11:20.562Z,84.26
2018-12-13T23:13:50.281Z,84.14
2018-12-13T23:16:32.640Z,84.20
2018-12-13T23:19:05.844Z,83.79
2018-12-13T23:21:47.436Z,83.67
2018-12-13T23:24:29.296Z,83.59
2018-12-13T23:27:10.931Z,83.65
2018-12-13T23:29:52.664Z,84.32
2018-12-13T23:32:45.107Z,83.95
2018-12-13T23:35:20.199Z,84.34
2018-12-13T23:37:55.935Z,84.15
2018-12-13T23:43:37.592Z,84.21
2018-12-13T23:46:19.699Z,84.75
2018-12-13T23:49:07.996Z,84.58
2018-12-13T23:51:50.389Z,84.57
2018-12-13T23:54:22.866Z,84.62
2018-12-13T23:57:07.327Z,84.60
2018-12-13T23:59:53.171Z,84.46
